Portada
METAR-TAF:

METAR-TAF

Aeropuertos :

Aeropuerto de Madrid-Barajas

Madrid, España

latitud: 40-27N, longitud: 003-33W, altitud: 609 m

Observación

El informe se hizo hace 29 minutos, a las 08:30 UTC
Viento 2 kt del norte-noroeste
Temperatura 2°C
Humedad 80%
Presión 1033 hPa
Visibilidad 10 km o más
sin nubes por debajo de 1500 m y sin presencia de cumulonimbus.

METAR: LEMD 220830Z 34002KT CAVOK 02/M01 Q1033 NOSIG

Hora: 09:59 (08:59 UTC)

Pronóstico

El informe se hizo hace 3 horas y 59 minutos, a las 05:00 UTC
Pronóstico válido del 22 a las 06 UTC al 23 a las 12 UTC
Viento 4 kt del norte-noreste
Visibilidad 10 km o más
sin nubes por debajo de 1500 m y sin presencia de cumulonimbus.

TAF: LEMD 220500Z 2206/2312 03004KT CAVOK TX19/2215Z TN00/2307Z

Observaciones y pronósticos meteorológicos de más de 4000 aeropuertos (mensajes METAR y TAF).

Los puntos amarillos y rojos representan las estaciones disponibles.

Ponga el ratón en el punto deseado para ver el nombre de la estación.

Haga clic para ver las observaciones y los pronósticos meteorológicos.

Para cambiar el mapa : haga clic en los botones verdes con una cruz de color negro para hacer un zoom, en el botón verde con un guión para alejar o en las flechas verdes para mapas adyacentes.


METAR-TAF: